createdAt,value
2018-11-23T00:00:34.165Z,0.00
2018-11-23T00:01:34.178Z,0.00
2018-11-23T00:02:34.192Z,0.00
2018-11-23T00:03:34.196Z,0.00
2018-11-23T00:04:34.206Z,0.00
2018-11-23T00:05:34.220Z,0.00
2018-11-23T00:06:34.233Z,0.00
2018-11-23T00:07:34.249Z,0.00
2018-11-23T00:08:34.254Z,0.00
2018-11-23T00:09:34.262Z,0.00
2018-11-23T00:10:34.274Z,0.00
2018-11-23T00:11:34.287Z,0.00
2018-11-23T00:12:34.302Z,0.00
2018-11-23T00:13:34.314Z,0.00
2018-11-23T00:14:34.317Z,0.00
2018-11-23T00:15:34.331Z,0.00
2018-11-23T00:16:34.343Z,0.00
2018-11-23T00:17:34.361Z,0.00
2018-11-23T00:18:34.358Z,0.00
2018-11-23T00:19:34.372Z,0.00
2018-11-23T00:20:34.385Z,0.00
2018-11-23T00:21:34.400Z,0.00
2018-11-23T00:22:34.412Z,0.00
2018-11-23T00:23:34.425Z,0.00
2018-11-23T00:24:34.427Z,0.00
2018-11-23T00:25:34.442Z,0.00
2018-11-23T00:26:34.455Z,0.00
2018-11-23T00:27:34.467Z,0.00
2018-11-23T00:28:34.483Z,0.00
2018-11-23T00:29:34.482Z,0.00
2018-11-23T00:30:34.495Z,0.00
2018-11-23T00:31:34.508Z,0.00
2018-11-23T00:32:34.522Z,0.00
2018-11-23T00:33:34.528Z,0.00
2018-11-23T00:34:34.537Z,0.00
2018-11-23T00:35:34.550Z,0.00
2018-11-23T00:36:34.563Z,0.00
2018-11-23T00:37:34.578Z,0.00
2018-11-23T00:38:34.579Z,0.00
2018-11-23T00:39:34.591Z,0.00
2018-11-23T00:40:34.607Z,0.00
2018-11-23T00:41:34.631Z,0.00
2018-11-23T00:42:34.634Z,0.00
2018-11-23T00:43:34.634Z,0.00
2018-11-23T00:44:34.647Z,0.00
2018-11-23T00:45:35.657Z,0.00
2018-11-23T00:46:34.687Z,0.00
2018-11-23T00:47:34.688Z,0.00
2018-11-23T00:48:34.690Z,0.00
2018-11-23T00:49:34.746Z,0.00
2018-11-23T00:50:34.717Z,0.00
2018-11-23T00:51:34.730Z,0.00
2018-11-23T00:52:34.742Z,0.00
2018-11-23T00:53:34.745Z,0.00
2018-11-23T00:54:34.758Z,0.00
2018-11-23T00:55:34.771Z,0.00
2018-11-23T00:56:34.787Z,0.00
2018-11-23T00:57:34.798Z,0.00
2018-11-23T00:58:34.798Z,0.00
2018-11-23T00:59:34.825Z,0.00
2018-11-23T01:00:34.828Z,0.00
2018-11-23T01:01:34.840Z,0.00
2018-11-23T01:02:34.853Z,0.00
2018-11-23T01:03:34.857Z,0.00
2018-11-23T01:04:34.868Z,0.00
2018-11-23T01:05:34.883Z,0.00
2018-11-23T01:06:34.907Z,0.00
2018-11-23T01:07:34.909Z,0.00
2018-11-23T01:08:34.928Z,0.00
2018-11-23T01:09:34.922Z,0.00
2018-11-23T01:10:34.936Z,0.00
2018-11-23T01:11:34.953Z,0.00
2018-11-23T01:12:34.963Z,0.00
2018-11-23T01:13:34.966Z,0.00
2018-11-23T01:14:34.977Z,0.00
2018-11-23T01:15:34.992Z,0.00
2018-11-23T01:16:35.004Z,0.00
2018-11-23T01:17:35.020Z,0.00
2018-11-23T01:18:35.031Z,0.00
2018-11-23T01:19:35.033Z,0.00
2018-11-23T01:20:35.048Z,0.00
2018-11-23T01:21:35.060Z,0.00
2018-11-23T01:22:35.074Z,0.00
2018-11-23T01:23:35.088Z,0.00
2018-11-23T01:24:35.090Z,0.00
2018-11-23T01:25:35.102Z,0.00
2018-11-23T01:26:35.115Z,0.00
2018-11-23T01:27:35.129Z,0.00
2018-11-23T01:28:35.142Z,0.00
2018-11-23T01:29:35.144Z,0.00
2018-11-23T01:30:35.158Z,0.00
2018-11-23T01:31:35.169Z,0.00
2018-11-23T01:32:35.184Z,0.00
2018-11-23T01:33:35.197Z,0.00
2018-11-23T01:34:35.198Z,0.00
2018-11-23T01:35:35.212Z,0.00
2018-11-23T01:36:35.225Z,0.00
2018-11-23T01:37:35.240Z,0.00
2018-11-23T01:38:35.257Z,0.00
2018-11-23T01:39:35.254Z,0.00
2018-11-23T01:40:35.271Z,0.00
2018-11-23T01:41:35.280Z,0.00
2018-11-23T01:42:35.295Z,0.00
2018-11-23T01:43:35.307Z,0.00
2018-11-23T01:44:35.321Z,0.00
2018-11-23T01:45:35.323Z,0.00
2018-11-23T01:46:35.336Z,0.00
2018-11-23T01:47:35.349Z,0.00
2018-11-23T01:48:35.363Z,0.00
2018-11-23T01:49:35.367Z,0.00
2018-11-23T01:50:35.378Z,0.00
2018-11-23T01:51:35.392Z,0.00
2018-11-23T01:52:35.405Z,0.00
2018-11-23T01:53:35.432Z,0.00
2018-11-23T01:54:35.432Z,0.00
2018-11-23T01:55:35.433Z,0.00
2018-11-23T01:56:35.446Z,0.00
2018-11-23T01:57:35.460Z,0.00
2018-11-23T01:58:35.473Z,0.00
2018-11-23T01:59:35.490Z,0.00
2018-11-23T02:00:35.488Z,0.00
2018-11-23T02:01:35.501Z,0.00
2018-11-23T02:02:35.515Z,0.00
2018-11-23T02:03:35.527Z,0.00
2018-11-23T02:04:35.543Z,0.00
2018-11-23T02:05:35.544Z,0.00
2018-11-23T02:06:35.557Z,0.00
2018-11-23T02:07:35.570Z,0.00
2018-11-23T02:08:35.583Z,0.00
2018-11-23T02:09:35.598Z,0.00
2018-11-23T02:10:35.599Z,0.00
2018-11-23T02:11:35.611Z,0.00
2018-11-23T02:12:35.625Z,0.00
2018-11-23T02:13:35.650Z,0.00
2018-11-23T02:14:35.652Z,0.00
2018-11-23T02:15:35.664Z,0.00
2018-11-23T02:16:35.666Z,0.00
2018-11-23T02:17:35.680Z,0.00
2018-11-23T02:18:35.693Z,0.00
2018-11-23T02:19:35.708Z,0.00
2018-11-23T02:20:35.720Z,0.00
2018-11-23T02:21:35.722Z,0.00
2018-11-23T02:22:35.735Z,0.00
2018-11-23T02:23:35.750Z,0.00
2018-11-23T02:24:35.763Z,0.00
2018-11-23T02:25:35.775Z,0.00
2018-11-23T02:26:35.778Z,0.00
2018-11-23T02:27:35.791Z,0.00
2018-11-23T02:28:35.805Z,0.00
2018-11-23T02:29:35.819Z,0.00
2018-11-23T02:30:35.831Z,0.00
2018-11-23T02:31:35.833Z,0.00
2018-11-23T02:32:35.846Z,0.00
2018-11-23T02:33:35.860Z,0.00
2018-11-23T02:34:35.874Z,0.00
2018-11-23T02:35:35.886Z,0.00
2018-11-23T02:36:35.893Z,0.00
2018-11-23T02:37:35.902Z,0.00
2018-11-23T02:38:35.916Z,0.00
2018-11-23T02:39:35.928Z,0.00
2018-11-23T02:40:35.941Z,0.00
2018-11-23T02:41:35.943Z,0.00
2018-11-23T02:42:35.956Z,0.00
2018-11-23T02:43:35.971Z,0.00
2018-11-23T02:44:35.984Z,0.00
2018-11-23T02:45:35.997Z,0.00
2018-11-23T02:46:35.998Z,0.00
2018-11-23T02:47:36.013Z,0.00
2018-11-23T02:48:36.025Z,0.00
2018-11-23T02:49:36.039Z,0.00
2018-11-23T02:50:36.052Z,0.00
2018-11-23T02:51:36.053Z,0.00
2018-11-23T02:52:36.066Z,0.00
2018-11-23T02:53:36.095Z,0.00
2018-11-23T02:54:36.094Z,0.00
2018-11-23T02:55:36.107Z,0.00
2018-11-23T02:56:36.107Z,0.00
2018-11-23T02:57:36.123Z,0.00
2018-11-23T02:58:36.134Z,0.00
2018-11-23T02:59:36.150Z,0.00
2018-11-23T03:00:36.175Z,0.00
2018-11-23T03:01:36.163Z,0.00
2018-11-23T03:02:36.177Z,0.00
2018-11-23T03:03:36.191Z,0.00
2018-11-23T03:04:36.205Z,0.00
2018-11-23T03:05:36.217Z,0.00
2018-11-23T03:06:36.219Z,0.00
2018-11-23T03:07:36.234Z,0.00
2018-11-23T03:08:36.247Z,0.00
2018-11-23T03:09:36.259Z,0.00
2018-11-23T03:10:36.261Z,0.00
2018-11-23T03:11:36.274Z,0.00
2018-11-23T03:12:36.292Z,0.00
2018-11-23T03:13:36.300Z,0.00
2018-11-23T03:14:36.315Z,0.00
2018-11-23T03:15:36.316Z,0.00
2018-11-23T03:16:36.328Z,0.00
2018-11-23T03:17:36.342Z,0.00
2018-11-23T03:18:36.355Z,0.00
2018-11-23T03:19:36.369Z,0.00
2018-11-23T03:20:36.396Z,0.00
2018-11-23T03:21:36.398Z,0.00
2018-11-23T03:22:36.399Z,0.00
2018-11-23T03:23:36.410Z,0.00
2018-11-23T03:24:36.425Z,0.00
2018-11-23T03:25:36.427Z,0.00
2018-11-23T03:26:36.452Z,0.00
2018-11-23T03:27:36.454Z,0.00
2018-11-23T03:28:36.467Z,0.00
2018-11-23T03:29:36.481Z,0.00
2018-11-23T03:30:36.481Z,0.00
2018-11-23T03:31:36.494Z,0.00
2018-11-23T03:32:36.509Z,0.00
2018-11-23T03:33:36.522Z,0.00
2018-11-23T03:34:36.536Z,0.00
2018-11-23T03:35:36.548Z,0.00
2018-11-23T03:36:36.550Z,0.00
2018-11-23T03:37:36.563Z,0.00
2018-11-23T03:38:36.576Z,0.00
2018-11-23T03:39:36.591Z,0.00
2018-11-23T03:40:36.603Z,0.00
2018-11-23T03:41:36.604Z,0.00
2018-11-23T03:42:36.619Z,0.00
2018-11-23T03:43:36.632Z,0.00
2018-11-23T03:44:36.646Z,0.00
2018-11-23T03:45:36.664Z,0.00
2018-11-23T03:46:36.675Z,0.00
2018-11-23T03:47:36.675Z,0.00
2018-11-23T03:48:36.687Z,0.00
2018-11-23T03:49:36.706Z,0.00
2018-11-23T03:50:36.717Z,0.00
2018-11-23T03:51:36.716Z,0.00
2018-11-23T03:52:36.728Z,0.00
2018-11-23T03:53:36.744Z,0.00
2018-11-23T03:54:36.756Z,0.00
2018-11-23T03:55:36.771Z,0.00
2018-11-23T03:56:36.772Z,0.00
2018-11-23T03:57:36.785Z,0.00
2018-11-23T03:58:36.800Z,0.00
2018-11-23T03:59:36.811Z,0.00
2018-11-23T04:00:36.824Z,0.00
2018-11-23T04:01:36.830Z,0.00
2018-11-23T04:02:36.841Z,0.00
2018-11-23T04:03:36.852Z,0.00
2018-11-23T04:04:36.868Z,0.00
2018-11-23T04:05:36.920Z,0.00
2018-11-23T04:06:36.893Z,0.00
2018-11-23T04:07:36.895Z,0.00
2018-11-23T04:08:36.908Z,0.00
2018-11-23T04:09:36.921Z,0.00
2018-11-23T04:10:36.934Z,0.00
2018-11-23T04:11:36.948Z,0.00
2018-11-23T04:12:36.949Z,0.00
2018-11-23T04:13:36.964Z,0.00
2018-11-23T04:14:36.976Z,0.00
2018-11-23T04:15:36.990Z,0.00
2018-11-23T04:16:37.005Z,0.00
2018-11-23T04:17:37.005Z,0.00
2018-11-23T04:18:37.021Z,0.00
2018-11-23T04:19:37.035Z,0.00
2018-11-23T04:20:37.057Z,0.00
2018-11-23T04:21:37.059Z,0.00
2018-11-23T04:22:37.072Z,0.00
2018-11-23T04:23:37.072Z,0.00
2018-11-23T04:24:37.089Z,0.00
2018-11-23T04:25:37.100Z,0.00
2018-11-23T04:26:37.114Z,0.00
2018-11-23T04:27:37.140Z,0.00
2018-11-23T04:28:37.129Z,0.00
2018-11-23T04:29:37.144Z,0.00
2018-11-23T04:30:37.157Z,0.00
2018-11-23T04:31:37.170Z,0.00
2018-11-23T04:32:37.184Z,0.00
2018-11-23T04:33:37.196Z,0.00
2018-11-23T04:34:37.198Z,0.00
2018-11-23T04:35:37.212Z,0.00
2018-11-23T04:36:37.226Z,0.00
2018-11-23T04:37:37.237Z,0.00
2018-11-23T04:38:37.251Z,0.00
2018-11-23T04:39:37.252Z,0.00
2018-11-23T04:40:37.267Z,0.00
2018-11-23T04:41:37.279Z,0.00
2018-11-23T04:42:37.292Z,0.00
2018-11-23T04:43:37.309Z,0.00
2018-11-23T04:44:37.310Z,0.00
2018-11-23T04:45:37.320Z,0.00
2018-11-23T04:46:37.336Z,0.00
2018-11-23T04:47:37.349Z,0.00
2018-11-23T04:48:37.364Z,0.00
2018-11-23T04:49:37.364Z,0.00
2018-11-23T04:50:37.377Z,0.00
2018-11-23T04:51:37.390Z,0.00
2018-11-23T04:52:37.402Z,0.00
2018-11-23T04:53:37.417Z,0.00
2018-11-23T04:54:37.419Z,0.00
2018-11-23T04:55:37.430Z,0.00
2018-11-23T04:56:37.444Z,0.00
2018-11-23T04:57:37.459Z,0.00
2018-11-23T04:58:37.472Z,0.00
2018-11-23T04:59:37.484Z,0.00
2018-11-23T05:00:37.485Z,0.00
2018-11-23T05:01:37.500Z,0.00
2018-11-23T05:02:37.514Z,0.00
2018-11-23T05:03:37.533Z,0.00
2018-11-23T05:04:37.540Z,0.00
2018-11-23T05:05:37.541Z,0.00
2018-11-23T05:06:37.556Z,0.00
2018-11-23T05:07:37.567Z,0.00
2018-11-23T05:08:37.584Z,0.00
2018-11-23T05:09:37.596Z,0.00
2018-11-23T05:10:37.597Z,0.00
2018-11-23T05:11:37.613Z,0.00
2018-11-23T05:12:37.623Z,0.00
2018-11-23T05:13:37.636Z,0.00
2018-11-23T05:14:37.639Z,0.00
2018-11-23T05:15:37.653Z,0.00
2018-11-23T05:16:37.666Z,0.00
2018-11-23T05:17:37.682Z,0.00
2018-11-23T05:18:37.716Z,0.00
2018-11-23T05:19:37.705Z,0.00
2018-11-23T05:20:37.706Z,0.00
2018-11-23T05:21:37.720Z,0.00
2018-11-23T05:22:37.733Z,0.00
2018-11-23T05:23:37.748Z,0.00
2018-11-23T05:24:37.749Z,0.00
2018-11-23T05:25:37.763Z,0.00
2018-11-23T05:26:37.775Z,0.00
2018-11-23T05:27:37.788Z,0.00
2018-11-23T05:28:37.803Z,0.00
2018-11-23T05:29:37.804Z,0.00
2018-11-23T05:30:37.816Z,0.00
2018-11-23T05:31:37.832Z,0.00
2018-11-23T05:32:37.844Z,0.00
2018-11-23T05:33:37.858Z,0.00
2018-11-23T05:34:37.859Z,0.00
2018-11-23T05:35:37.873Z,0.00
2018-11-23T05:36:37.885Z,0.00
2018-11-23T05:37:37.902Z,0.00
2018-11-23T05:38:37.913Z,0.00
2018-11-23T05:39:37.914Z,0.00
2018-11-23T05:40:37.941Z,0.00
2018-11-23T05:41:37.941Z,0.00
2018-11-23T05:42:37.953Z,0.00
2018-11-23T05:43:37.968Z,0.00
2018-11-23T05:44:37.970Z,0.00
2018-11-23T05:45:37.982Z,0.00
2018-11-23T05:46:37.995Z,0.00
2018-11-23T05:47:38.011Z,0.00
2018-11-23T05:48:38.025Z,0.00
2018-11-23T05:49:38.024Z,0.00
2018-11-23T05:50:38.039Z,0.00
2018-11-23T05:51:38.051Z,0.00
2018-11-23T05:52:38.065Z,0.00
2018-11-23T05:53:38.069Z,0.00
2018-11-23T05:54:38.080Z,0.00
2018-11-23T05:55:38.092Z,0.00
2018-11-23T05:56:38.106Z,0.00
2018-11-23T05:57:38.118Z,0.00
2018-11-23T05:58:38.133Z,0.00
2018-11-23T05:59:38.133Z,0.00
2018-11-23T06:00:38.163Z,0.00
2018-11-23T06:01:38.161Z,0.00
2018-11-23T06:02:38.174Z,0.00
2018-11-23T06:03:38.188Z,0.00
2018-11-23T06:04:38.193Z,0.00
2018-11-23T06:05:38.203Z,0.00
2018-11-23T06:06:42.253Z,0.00
2018-11-23T06:07:38.230Z,0.00
2018-11-23T06:08:38.245Z,0.00
2018-11-23T06:09:38.245Z,0.00
2018-11-23T06:10:38.258Z,4.00
2018-11-23T06:11:38.273Z,4.00
2018-11-23T06:12:38.287Z,0.00
2018-11-23T06:13:38.300Z,0.00
2018-11-23T06:14:38.311Z,4.00
2018-11-23T06:15:44.282Z,4.00
2018-11-23T06:16:38.328Z,0.00
2018-11-23T06:17:38.339Z,4.00
2018-11-23T06:18:38.353Z,8.00
2018-11-23T06:19:38.367Z,4.00
2018-11-23T06:20:38.368Z,8.00
2018-11-23T06:21:38.384Z,8.00
2018-11-23T06:22:38.395Z,8.00
2018-11-23T06:23:38.410Z,12.00
2018-11-23T06:24:38.422Z,12.00
2018-11-23T06:25:38.423Z,16.00
2018-11-23T06:26:38.437Z,16.00
2018-11-23T06:27:38.450Z,16.00
2018-11-23T06:28:38.464Z,20.00
2018-11-23T06:29:38.477Z,20.00
2018-11-23T06:30:38.491Z,20.00
2018-11-23T06:31:38.493Z,24.00
2018-11-23T06:32:38.505Z,24.00
2018-11-23T06:33:38.522Z,28.00
2018-11-23T06:34:38.532Z,32.00
2018-11-23T06:35:38.547Z,36.00
2018-11-23T06:36:38.558Z,36.00
2018-11-23T06:37:38.563Z,40.00
2018-11-23T06:38:38.574Z,44.00
2018-11-23T06:39:38.588Z,48.00
2018-11-23T06:40:38.601Z,52.00
2018-11-23T06:41:38.627Z,56.00
2018-11-23T06:42:42.170Z,56.00
2018-11-23T06:43:38.629Z,60.00
2018-11-23T06:44:38.642Z,60.00
2018-11-23T06:45:38.658Z,60.00
2018-11-23T06:46:38.669Z,64.00
2018-11-23T06:47:38.685Z,68.00
2018-11-23T06:48:38.685Z,68.00
2018-11-23T06:49:38.698Z,72.00
2018-11-23T06:50:38.712Z,76.00
2018-11-23T06:51:38.725Z,76.00
2018-11-23T06:52:38.739Z,80.00
2018-11-23T06:53:38.752Z,92.00
2018-11-23T06:54:38.756Z,96.00
2018-11-23T06:55:38.767Z,100.00
2018-11-23T06:56:38.789Z,112.00
2018-11-23T06:57:38.793Z,124.00
2018-11-23T06:58:38.807Z,120.00
2018-11-23T06:59:38.821Z,120.00
2018-11-23T07:00:38.822Z,132.00
2018-11-23T07:01:38.836Z,136.00
2018-11-23T07:02:38.850Z,140.00
2018-11-23T07:03:38.862Z,152.00
2018-11-23T07:04:38.881Z,164.00
2018-11-23T07:05:38.877Z,164.00
2018-11-23T07:06:38.890Z,172.00
2018-11-23T07:07:38.904Z,176.00
2018-11-23T07:08:38.917Z,192.00
2018-11-23T07:09:38.930Z,208.00
2018-11-23T07:10:38.944Z,236.00
2018-11-23T07:11:38.950Z,248.00
2018-11-23T07:12:38.959Z,248.00
2018-11-23T07:13:38.976Z,272.00
2018-11-23T07:14:38.988Z,288.00
2018-11-23T07:15:38.999Z,312.00
2018-11-23T07:16:39.014Z,332.00
2018-11-23T07:17:39.015Z,376.00
2018-11-23T07:18:39.027Z,372.00
2018-11-23T07:19:39.042Z,392.00
2018-11-23T07:20:39.054Z,412.00
2018-11-23T07:21:39.072Z,432.00
2018-11-23T07:22:39.082Z,420.00
2018-11-23T07:23:39.084Z,468.00
2018-11-23T07:24:39.100Z,468.00
2018-11-23T07:25:39.109Z,480.00
2018-11-23T07:26:39.123Z,468.00
2018-11-23T07:27:39.140Z,488.00
2018-11-23T07:28:39.150Z,512.00
2018-11-23T07:29:39.151Z,492.00
2018-11-23T07:30:39.165Z,524.00
2018-11-23T07:31:39.179Z,520.00
2018-11-23T07:32:39.198Z,528.00
2018-11-23T07:33:39.206Z,536.00
2018-11-23T07:34:39.219Z,560.00
2018-11-23T07:35:39.221Z,600.00
2018-11-23T07:36:39.234Z,624.00
2018-11-23T07:37:39.246Z,680.00
2018-11-23T07:38:39.262Z,684.00
2018-11-23T07:39:39.425Z,748.00
2018-11-23T07:40:39.289Z,720.00
2018-11-23T07:41:39.289Z,712.00
2018-11-23T07:42:39.302Z,748.00
2018-11-23T07:43:39.316Z,736.00
2018-11-23T07:44:39.329Z,760.00
2018-11-23T07:45:39.344Z,732.00
2018-11-23T07:46:39.372Z,660.00
2018-11-23T07:47:39.370Z,720.00
2018-11-23T07:48:39.371Z,700.00
2018-11-23T07:49:39.385Z,708.00
2018-11-23T07:50:39.398Z,736.00
2018-11-23T07:51:39.411Z,756.00
2018-11-23T07:52:39.427Z,772.00
2018-11-23T07:53:39.426Z,856.00
2018-11-23T07:54:39.439Z,880.00
2018-11-23T07:55:39.455Z,912.00
2018-11-23T07:56:39.466Z,892.00
2018-11-23T07:57:39.480Z,1020.00
2018-11-23T07:58:39.493Z,1192.00
2018-11-23T07:59:39.508Z,1164.00
2018-11-23T08:00:39.520Z,1296.00
2018-11-23T08:01:39.522Z,1432.00
2018-11-23T08:02:39.535Z,1532.00
2018-11-23T08:03:39.548Z,1440.00
2018-11-23T08:04:39.563Z,1488.00
2018-11-23T08:05:39.592Z,1488.00
2018-11-23T08:06:39.578Z,1448.00
2018-11-23T08:07:39.591Z,1584.00
2018-11-23T08:08:39.604Z,1464.00
2018-11-23T08:09:39.619Z,1508.00
2018-11-23T08:10:39.631Z,1564.00
2018-11-23T08:11:39.645Z,1604.00
2018-11-23T08:12:39.658Z,1564.00
2018-11-23T08:13:39.659Z,1552.00
2018-11-23T08:14:39.673Z,1540.00
2018-11-23T08:15:39.686Z,1412.00
2018-11-23T08:16:39.701Z,1540.00
2018-11-23T08:17:39.714Z,1612.00
2018-11-23T08:18:39.727Z,1472.00
2018-11-23T08:19:47.024Z,1432.00
2018-11-23T08:20:39.755Z,1316.00
2018-11-23T08:21:39.755Z,1280.00
2018-11-23T08:22:39.769Z,1232.00
2018-11-23T08:23:39.787Z,1220.00
2018-11-23T08:24:39.795Z,1224.00
2018-11-23T08:25:39.808Z,1172.00
2018-11-23T08:26:39.836Z,1232.00
2018-11-23T08:27:39.825Z,1136.00
2018-11-23T08:28:39.838Z,1120.00
2018-11-23T08:29:39.850Z,1096.00
2018-11-23T08:30:39.864Z,1104.00
2018-11-23T08:31:39.877Z,1192.00
2018-11-23T08:32:39.893Z,1148.00
2018-11-23T08:33:39.918Z,1160.00
2018-11-23T08:34:39.921Z,1204.00
2018-11-23T08:35:39.922Z,1108.00
2018-11-23T08:36:39.934Z,1100.00
2018-11-23T08:37:39.947Z,1244.00
2018-11-23T08:38:39.961Z,1316.00
2018-11-23T08:39:39.974Z,1332.00
2018-11-23T08:40:39.988Z,1400.00
2018-11-23T08:41:40.002Z,1544.00
2018-11-23T08:42:40.014Z,1820.00
2018-11-23T08:43:40.015Z,2076.00
2018-11-23T08:44:40.034Z,2140.00
2018-11-23T08:45:40.043Z,2220.00
2018-11-23T08:46:40.058Z,2228.00
2018-11-23T08:47:40.068Z,2316.00
2018-11-23T08:48:40.083Z,2352.00
2018-11-23T08:49:40.097Z,2524.00
2018-11-23T08:50:40.102Z,2380.00
2018-11-23T08:51:40.112Z,2640.00
2018-11-23T08:52:40.124Z,2540.00
2018-11-23T08:53:40.137Z,2632.00
2018-11-23T08:54:40.153Z,2864.00
2018-11-23T08:55:40.165Z,2860.00
2018-11-23T08:56:40.179Z,2808.00
2018-11-23T08:57:40.192Z,2984.00
2018-11-23T08:58:40.209Z,2900.00
2018-11-23T08:59:40.206Z,2916.00
2018-11-23T09:00:40.221Z,2920.00
2018-11-23T09:01:40.234Z,2996.00
2018-11-23T09:02:40.248Z,2932.00
2018-11-23T09:03:40.261Z,2916.00
2018-11-23T09:04:40.275Z,2812.00
2018-11-23T09:05:40.340Z,2780.00
2018-11-23T09:06:40.301Z,2688.00
2018-11-23T09:07:40.317Z,2724.00
2018-11-23T09:08:40.316Z,2720.00
2018-11-23T09:09:40.330Z,2536.00
2018-11-23T09:10:40.355Z,2548.00
2018-11-23T09:11:40.358Z,2632.00
2018-11-23T09:12:40.370Z,2404.00
2018-11-23T09:13:40.385Z,2484.00
2018-11-23T09:14:40.397Z,2444.00
2018-11-23T09:15:40.411Z,2504.00
2018-11-23T09:16:40.424Z,2464.00
2018-11-23T09:17:40.438Z,2344.00
2018-11-23T09:18:40.450Z,2508.00
2018-11-23T09:19:40.452Z,2208.00
2018-11-23T09:20:40.468Z,2180.00
2018-11-23T09:21:40.480Z,2236.00
2018-11-23T09:22:40.497Z,2204.00
2018-11-23T09:23:40.506Z,2424.00
2018-11-23T09:24:40.525Z,2448.00
2018-11-23T09:25:40.547Z,2424.00
2018-11-23T09:26:40.553Z,2396.00
2018-11-23T09:27:40.560Z,2308.00
2018-11-23T09:28:40.575Z,2548.00
2018-11-23T09:29:40.575Z,2308.00
2018-11-23T09:30:40.589Z,2248.00
2018-11-23T09:31:40.606Z,2488.00
2018-11-23T09:32:40.615Z,2376.00
2018-11-23T09:33:40.629Z,2488.00
2018-11-23T09:34:40.848Z,2660.00
2018-11-23T09:35:40.657Z,2624.00
2018-11-23T09:36:40.673Z,2608.00
2018-11-23T09:37:40.683Z,2620.00
2018-11-23T09:38:40.696Z,2612.00
2018-11-23T09:39:40.699Z,2760.00
2018-11-23T09:40:40.718Z,2784.00
2018-11-23T09:41:40.725Z,2772.00
2018-11-23T09:42:40.739Z,2760.00
2018-11-23T09:43:40.760Z,2724.00
2018-11-23T09:44:40.766Z,2688.00
2018-11-23T09:45:40.779Z,2628.00
2018-11-23T09:46:40.792Z,2680.00
2018-11-23T09:47:40.806Z,2660.00
2018-11-23T09:48:40.820Z,2540.00
2018-11-23T09:49:40.857Z,2516.00
2018-11-23T09:50:40.858Z,2620.00
2018-11-23T09:51:40.860Z,2532.00
2018-11-23T09:52:40.863Z,2684.00
2018-11-23T09:53:40.877Z,2576.00
2018-11-23T09:54:40.888Z,2548.00
2018-11-23T09:55:40.902Z,2552.00
2018-11-23T09:56:40.915Z,2888.00
2018-11-23T09:57:40.930Z,2996.00
2018-11-23T09:58:43.620Z,2476.00
2018-11-23T09:59:40.957Z,2484.00
2018-11-23T10:00:40.969Z,2560.00
2018-11-23T10:01:40.984Z,2768.00
2018-11-23T10:02:40.998Z,2768.00
2018-11-23T10:03:41.014Z,2620.00
2018-11-23T10:04:41.023Z,2620.00
2018-11-23T10:05:41.025Z,2728.00
2018-11-23T10:06:41.040Z,2684.00
2018-11-23T10:07:41.055Z,2752.00
2018-11-23T10:08:41.065Z,2864.00
2018-11-23T10:09:41.078Z,2956.00
2018-11-23T10:10:41.093Z,2684.00
2018-11-23T10:11:41.105Z,2804.00
2018-11-23T10:12:41.120Z,2600.00
2018-11-23T10:13:41.134Z,2664.00
2018-11-23T10:14:41.152Z,2908.00
2018-11-23T10:15:41.162Z,2924.00
2018-11-23T10:16:41.174Z,2776.00
2018-11-23T10:17:41.176Z,2552.00
2018-11-23T10:18:41.202Z,2440.00
2018-11-23T10:19:41.202Z,2640.00
2018-11-23T10:20:41.231Z,2968.00
2018-11-23T10:21:41.230Z,2984.00
2018-11-23T10:22:41.243Z,2764.00
2018-11-23T10:23:41.256Z,2660.00
2018-11-23T10:24:41.274Z,2668.00
2018-11-23T10:25:41.313Z,2948.00
2018-11-23T10:26:41.330Z,2632.00
2018-11-23T10:27:41.309Z,2364.00
2018-11-23T10:28:41.323Z,2460.00
2018-11-23T10:29:41.337Z,2616.00
2018-11-23T10:30:41.353Z,2780.00
2018-11-23T10:31:41.352Z,2532.00
2018-11-23T10:32:41.367Z,2424.00
2018-11-23T10:33:41.379Z,2572.00
2018-11-23T10:34:41.393Z,2612.00
2018-11-23T10:35:41.427Z,2508.00
2018-11-23T10:36:41.421Z,2516.00
2018-11-23T10:37:41.433Z,2560.00
2018-11-23T10:38:41.446Z,2352.00
2018-11-23T10:39:41.459Z,2472.00
2018-11-23T10:40:41.474Z,2680.00
2018-11-23T10:41:41.487Z,2780.00
2018-11-23T10:42:41.503Z,2724.00
2018-11-23T10:43:41.515Z,2628.00
2018-11-23T10:44:41.529Z,2820.00
2018-11-23T10:45:41.541Z,2760.00
2018-11-23T10:46:41.556Z,2484.00
2018-11-23T10:47:41.567Z,2668.00
2018-11-23T10:48:41.573Z,2888.00
2018-11-23T10:49:41.584Z,2836.00
2018-11-23T10:50:41.609Z,2736.00
2018-11-23T10:51:41.610Z,2968.00
2018-11-23T10:52:41.624Z,2876.00
2018-11-23T10:53:41.638Z,2928.00
2018-11-23T10:54:41.650Z,3044.00
2018-11-23T10:55:41.665Z,3164.00
2018-11-23T10:56:41.677Z,3180.00
2018-11-23T10:57:41.694Z,3280.00
2018-11-23T10:58:41.728Z,3264.00
2018-11-23T10:59:41.718Z,3080.00
2018-11-23T11:00:41.740Z,3132.00
2018-11-23T11:01:41.746Z,3292.00
2018-11-23T11:02:41.759Z,3308.00
2018-11-23T11:03:41.761Z,3224.00
2018-11-23T11:04:41.774Z,3168.00
2018-11-23T11:05:41.787Z,3300.00
2018-11-23T11:06:41.801Z,3196.00
2018-11-23T11:07:41.814Z,3364.00
2018-11-23T11:08:41.828Z,3628.00
2018-11-23T11:09:41.855Z,3716.00
2018-11-23T11:10:41.855Z,3432.00
2018-11-23T11:11:41.868Z,3332.00
2018-11-23T11:12:41.882Z,3400.00
2018-11-23T11:13:41.895Z,3320.00
2018-11-23T11:14:41.909Z,3348.00
2018-11-23T11:15:41.923Z,3160.00
2018-11-23T11:16:41.945Z,3344.00
2018-11-23T11:17:41.948Z,3284.00
2018-11-23T11:18:41.963Z,3236.00
2018-11-23T11:19:41.979Z,3256.00
2018-11-23T11:20:41.990Z,2964.00
2018-11-23T11:21:41.994Z,2928.00
2018-11-23T11:22:42.005Z,3008.00
2018-11-23T11:23:42.022Z,3160.00
2018-11-23T11:24:42.044Z,3104.00
2018-11-23T11:25:42.045Z,3048.00
2018-11-23T11:26:42.059Z,3044.00
2018-11-23T11:27:42.073Z,2996.00
2018-11-23T11:28:42.085Z,3200.00
2018-11-23T11:29:42.099Z,3148.00
2018-11-23T11:30:42.113Z,3236.00
2018-11-23T11:31:42.127Z,3200.00
2018-11-23T11:32:42.140Z,3064.00
2018-11-23T11:33:42.154Z,3044.00
2018-11-23T11:34:42.166Z,3092.00
2018-11-23T11:35:42.183Z,2884.00
2018-11-23T11:36:42.194Z,2768.00
2018-11-23T11:37:42.208Z,2828.00
2018-11-23T11:38:42.221Z,2832.00
2018-11-23T11:39:42.235Z,2920.00
2018-11-23T11:40:42.248Z,3048.00
2018-11-23T11:41:42.263Z,3248.00
2018-11-23T11:42:42.274Z,3512.00
2018-11-23T11:43:42.289Z,3524.00
2018-11-23T11:44:42.302Z,3496.00
2018-11-23T11:45:43.329Z,3472.00
2018-11-23T11:46:42.330Z,3420.00
2018-11-23T11:47:42.343Z,3256.00
2018-11-23T11:48:42.356Z,3092.00
2018-11-23T11:49:42.359Z,3032.00
2018-11-23T11:50:42.400Z,2928.00
2018-11-23T11:51:42.385Z,3020.00
2018-11-23T11:52:42.409Z,3080.00
2018-11-23T11:53:42.411Z,3200.00
2018-11-23T11:54:42.425Z,2988.00
2018-11-23T11:55:42.441Z,3132.00
2018-11-23T11:56:42.453Z,2924.00
2018-11-23T11:57:42.465Z,2368.00
2018-11-23T11:58:42.480Z,2116.00
2018-11-23T11:59:42.492Z,1784.00
2018-11-23T12:00:42.508Z,1744.00
2018-11-23T12:01:42.519Z,1908.00
2018-11-23T12:02:42.538Z,2096.00
2018-11-23T12:03:42.549Z,2376.00
2018-11-23T12:04:42.562Z,2804.00
2018-11-23T12:05:42.574Z,3144.00
2018-11-23T12:06:42.590Z,3572.00
2018-11-23T12:07:42.602Z,3764.00
2018-11-23T12:08:42.616Z,3476.00
2018-11-23T12:09:42.640Z,2932.00
2018-11-23T12:10:42.641Z,2584.00
2018-11-23T12:11:42.654Z,2304.00
2018-11-23T12:12:42.669Z,2820.00
2018-11-23T12:13:42.681Z,2964.00
2018-11-23T12:14:42.696Z,2700.00
2018-11-23T12:15:42.709Z,2504.00
2018-11-23T12:16:42.729Z,2312.00
2018-11-23T12:17:42.736Z,2452.00
2018-11-23T12:18:42.751Z,2624.00
2018-11-23T12:19:42.762Z,2784.00
2018-11-23T12:20:42.778Z,2760.00
2018-11-23T12:21:42.790Z,2420.00
2018-11-23T12:22:42.805Z,2344.00
2018-11-23T12:23:42.830Z,2388.00
2018-11-23T12:24:42.831Z,2672.00
2018-11-23T12:25:42.845Z,3012.00
2018-11-23T12:26:42.859Z,3280.00
2018-11-23T12:27:42.871Z,3104.00
2018-11-23T12:28:42.885Z,2904.00
2018-11-23T12:29:42.898Z,2900.00
2018-11-23T12:30:42.916Z,2732.00
2018-11-23T12:31:42.925Z,2800.00
2018-11-23T12:32:42.942Z,2772.00
2018-11-23T12:33:42.957Z,2708.00
2018-11-23T12:34:42.966Z,2712.00
2018-11-23T12:35:42.980Z,2744.00
2018-11-23T12:36:42.997Z,2816.00
2018-11-23T12:37:43.020Z,3240.00
2018-11-23T12:38:43.290Z,3256.00
2018-11-23T12:39:43.033Z,2812.00
2018-11-23T12:40:43.048Z,2588.00
2018-11-23T12:41:43.061Z,2656.00
2018-11-23T12:42:43.078Z,2316.00
2018-11-23T12:43:43.087Z,2016.00
2018-11-23T12:44:43.108Z,2028.00